Time;durP1;ratioP1;P1;durP2;ratioP2;P2;SDS_P1;SDS_P2;PMS_P1;PMS_P2;Temp;Humidity;BMP_temperature;BMP_pressure;BME280_temperature;BME280_humidity;BME280_pressure;Samples;Min_cycle;Max_cycle;Signal;HPM_P1;HPM_P2
2022/08/08 00:01:15;;;;;;;2.45;1.83;;;;;;;18.81;49.31;98992.75;4989873;28;103777;-61
2022/08/08 00:03:54;;;;;;;2.30;1.40;;;;;;;18.46;50.12;99002.47;4998388;28;103963;-61
2022/08/08 00:06:37;;;;;;;1.20;1.10;;;;;;;18.98;48.53;99000.75;4986813;28;103277;-58
2022/08/08 00:09:10;;;;;;;1.13;1.00;;;;;;;19.23;47.97;98998.25;4994823;28;103059;-59
2022/08/08 00:11:44;;;;;;;1.40;1.02;;;;;;;19.33;47.97;98999.81;4994939;28;103822;-59
2022/08/08 00:14:45;;;;;;;1.38;1.27;;;;;;;19.21;48.66;98998.38;4990548;28;103347;-59
2022/08/08 00:17:39;;;;;;;1.33;1.23;;;;;;;19.06;49.31;98998.13;4996157;28;104049;-59
2022/08/08 00:20:34;;;;;;;1.50;1.25;;;;;;;19.19;49.15;98999.56;4993280;28;102756;-58
2022/08/08 00:23:07;;;;;;;1.92;1.50;;;;;;;19.11;49.91;98993.13;4997290;28;102639;-58
2022/08/08 00:25:40;;;;;;;1.70;1.60;;;;;;;18.97;50.41;99007.13;4994143;28;103274;-58
2022/08/08 00:28:24;;;;;;;2.20;1.33;;;;;;;18.50;51.97;99003.88;4981924;28;103353;-59
2022/08/08 00:31:12;;;;;;;2.70;1.70;;;;;;;18.49;51.88;99001.34;4982678;28;102670;-59
2022/08/08 00:37:12;;;;;;;3.33;1.92;;;;;;;17.62;54.11;99006.38;4988120;28;103225;-58
2022/08/08 00:40:33;;;;;;;2.05;1.40;;;;;;;18.06;52.73;99007.41;4996048;28;103253;-59
2022/08/08 00:43:41;;;;;;;1.63;1.30;;;;;;;18.48;51.67;99005.00;4977714;28;102627;-59
2022/08/08 00:46:45;;;;;;;2.15;1.67;;;;;;;18.33;52.18;99011.88;4974707;28;102830;-58
2022/08/08 00:49:55;;;;;;;2.50;1.70;;;;;;;17.40;54.65;99017.41;4990264;28;103303;-59
2022/08/08 00:52:48;;;;;;;2.05;1.80;;;;;;;17.54;53.96;99014.31;4973648;28;103178;-58
2022/08/08 00:56:01;;;;;;;1.73;1.50;;;;;;;16.78;55.59;99017.97;4973596;28;102597;-59
2022/08/08 00:59:25;;;;;;;1.70;1.10;;;;;;;17.78;52.43;99024.44;4963542;28;103369;-59
2022/08/08 01:02:51;;;;;;;2.10;1.30;;;;;;;17.78;52.67;99021.78;4985366;28;103334;-59
2022/08/08 01:06:12;;;;;;;1.33;1.23;;;;;;;17.56;52.90;99016.81;4974745;28;103388;-58
2022/08/08 01:09:19;;;;;;;0.95;0.95;;;;;;;17.68;52.55;99019.16;4975341;28;102740;-58
2022/08/08 01:13:01;;;;;;;0.93;0.90;;;;;;;18.15;50.49;99029.72;4975634;28;104749;-58
2022/08/08 01:16:02;;;;;;;1.00;0.80;;;;;;;18.35;50.06;99021.44;4896145;28;103309;-58
2022/08/08 01:19:24;;;;;;;2.10;1.20;;;;;;;18.18;51.01;99029.44;4909013;28;103302;-59
2022/08/08 01:22:43;;;;;;;1.30;1.00;;;;;;;18.44;50.32;99022.34;4970178;28;102745;-58
2022/08/08 01:25:45;;;;;;;1.20;1.00;;;;;;;18.48;50.63;99026.41;4976315;28;102818;-58
2022/08/08 01:28:46;;;;;;;1.33;1.00;;;;;;;18.51;50.30;99026.13;4979549;28;103549;-58
2022/08/08 01:31:56;;;;;;;1.50;1.20;;;;;;;17.96;52.97;99020.81;4966382;28;103289;-58
2022/08/08 01:35:04;;;;;;;1.92;1.20;;;;;;;17.89;53.21;99024.25;4980884;28;104078;-59
2022/08/08 01:38:10;;;;;;;1.55;1.02;;;;;;;18.02;52.51;99024.72;5002681;28;102733;-59
2022/08/08 01:40:53;;;;;;;1.63;1.20;;;;;;;17.87;52.96;99021.72;4978346;28;103915;-59
2022/08/08 01:43:47;;;;;;;1.80;1.20;;;;;;;17.82;52.50;99017.81;5002509;27;103284;-59
2022/08/08 01:46:40;;;;;;;1.20;1.03;;;;;;;17.71;52.83;99015.34;5009666;27;102988;-59
2022/08/08 01:49:18;;;;;;;1.73;1.00;;;;;;;17.99;51.79;99018.84;4977107;28;104214;-59
2022/08/08 01:52:18;;;;;;;1.30;1.20;;;;;;;18.06;51.59;99022.59;4976893;28;103238;-59
2022/08/08 01:55:15;;;;;;;1.00;0.90;;;;;;;18.01;51.66;99019.53;5000636;27;103316;-58
2022/08/08 01:58:28;;;;;;;1.30;1.17;;;;;;;17.93;52.56;99026.47;4970563;28;102631;-59
2022/08/08 02:01:22;;;;;;;1.10;1.00;;;;;;;18.00;52.59;99031.22;4974827;28;102853;-59
2022/08/08 02:04:05;;;;;;;2.85;1.50;;;;;;;17.74;53.31;99026.56;4979613;28;104025;-58
2022/08/08 02:07:00;;;;;;;1.67;1.40;;;;;;;17.66;53.75;99028.28;4975736;28;103252;-58
2022/08/08 02:09:54;;;;;;;0.98;0.90;;;;;;;17.75;52.58;99022.91;4983348;28;102741;-58
2022/08/08 02:12:50;;;;;;;0.82;0.82;;;;;;;17.93;52.08;99015.78;4979724;28;102743;-59
2022/08/08 02:15:31;;;;;;;1.77;1.20;;;;;;;18.01;52.34;99015.03;4981450;28;103409;-58
2022/08/08 02:18:11;;;;;;;2.40;1.40;;;;;;;17.95;52.83;99003.13;4978771;28;102988;-58
2022/08/08 02:22:30;;;;;;;1.83;1.30;;;;;;;17.67;54.31;99017.47;4976359;28;103345;-58
2022/08/08 02:23:45;;;;;;;1.92;1.38;;;;;;;17.45;54.70;99009.81;4974134;28;104083;-58
2022/08/08 02:26:23;;;;;;;1.70;1.30;;;;;;;17.16;55.77;99014.38;4978272;28;104394;-58
2022/08/08 02:29:12;;;;;;;2.78;1.38;;;;;;;16.96;56.11;99016.25;4977809;28;103181;-58
2022/08/08 02:32:09;;;;;;;1.20;1.10;;;;;;;17.34;54.41;99018.00;4995772;28;104621;-58
2022/08/08 02:35:26;;;;;;;2.00;1.40;;;;;;;17.41;53.93;99008.41;4975865;28;103841;-58
2022/08/08 02:38:20;;;;;;;1.20;1.00;;;;;;;17.30;53.97;99011.25;4978701;28;103576;-58
2022/08/08 02:41:35;;;;;;;0.82;0.80;;;;;;;17.48;53.24;99011.34;4983658;28;103319;-58
2022/08/08 02:44:54;;;;;;;1.00;0.90;;;;;;;17.59;52.93;99012.03;4978355;28;102689;-58
2022/08/08 02:48:10;;;;;;;1.80;1.13;;;;;;;17.55;52.97;99013.28;4960022;28;104017;-58
2022/08/08 02:51:26;;;;;;;1.55;0.90;;;;;;;17.64;52.29;99009.75;4998810;27;103569;-58
2022/08/08 02:54:32;;;;;;;1.50;1.00;;;;;;;17.66;52.82;99013.09;4985032;28;103274;-58
2022/08/08 02:57:50;;;;;;;1.55;1.30;;;;;;;17.26;55.38;99020.56;4980023;28;103167;-58
2022/08/08 03:00:41;;;;;;;1.48;1.38;;;;;;;17.12;55.83;99021.00;4930894;28;104073;-58
2022/08/08 03:03:54;;;;;;;1.35;1.17;;;;;;;17.34;54.46;99018.00;4926744;28;104163;-58
2022/08/08 03:07:18;;;;;;;1.97;1.67;;;;;;;16.72;57.93;99021.22;4979808;28;103201;-58
2022/08/08 03:10:28;;;;;;;2.40;1.45;;;;;;;16.31;59.12;99026.78;4996385;28;102659;-58
2022/08/08 03:13:40;;;;;;;1.90;1.63;;;;;;;15.25;62.41;99037.06;5000008;28;104218;-58
2022/08/08 03:16:41;;;;;;;2.75;1.50;;;;;;;14.84;62.92;99045.91;4990744;28;104044;-58
2022/08/08 03:19:43;;;;;;;3.80;1.70;;;;;;;14.70;62.98;99048.91;4988253;28;104191;-57
2022/08/08 03:22:19;;;;;;;2.03;1.48;;;;;;;15.37;60.98;99048.47;4982355;28;102772;-58
2022/08/08 03:25:10;;;;;;;1.53;1.40;;;;;;;15.94;58.59;99050.56;4973651;28;102645;-58
2022/08/08 03:27:56;;;;;;;1.55;1.27;;;;;;;16.16;58.46;99047.66;4978029;28;103576;-58
2022/08/08 03:30:28;;;;;;;3.27;1.70;;;;;;;15.49;60.52;99053.63;4971154;28;103269;-58
2022/08/08 03:33:17;;;;;;;3.22;1.80;;;;;;;14.66;63.96;99060.75;4989422;28;103177;-58
2022/08/08 03:36:05;;;;;;;3.45;1.45;;;;;;;14.67;63.54;99061.59;4976570;28;102852;-58
2022/08/08 03:38:38;;;;;;;3.03;1.50;;;;;;;14.66;63.82;99051.91;4984139;28;105364;-58
2022/08/08 03:41:33;;;;;;;2.60;1.70;;;;;;;14.71;63.47;99058.53;4997762;28;103240;-58
2022/08/08 03:44:22;;;;;;;2.20;1.50;;;;;;;14.98;63.04;99056.25;4984284;28;102681;-58
2022/08/08 03:46:55;;;;;;;3.57;1.80;;;;;;;14.93;63.71;99058.41;4977685;28;103894;-58
2022/08/08 03:49:26;;;;;;;2.67;1.60;;;;;;;15.26;62.44;99054.72;4979136;28;104228;-58
2022/08/08 03:52:15;;;;;;;1.20;1.10;;;;;;;15.95;59.10;99063.75;4991381;28;103272;-58
2022/08/08 03:54:46;;;;;;;1.23;1.10;;;;;;;16.25;58.40;99062.84;4977582;28;102823;-58
2022/08/08 03:57:36;;;;;;;1.70;1.17;;;;;;;16.32;58.18;99066.63;4979690;28;103152;-60
2022/08/08 04:00:28;;;;;;;2.60;1.40;;;;;;;16.11;60.13;99068.56;5000603;28;104218;-67
2022/08/08 04:03:06;;;;;;;2.50;1.67;;;;;;;15.98;60.79;99078.59;4998037;28;103408;-67
2022/08/08 04:05:39;;;;;;;1.50;1.40;;;;;;;16.13;60.34;99066.59;5000831;28;102899;-66
2022/08/08 04:08:21;;;;;;;3.63;1.65;;;;;;;16.16;59.82;99077.00;4976589;28;103917;-66
2022/08/08 04:11:05;;;;;;;3.00;1.70;;;;;;;15.43;63.62;99077.22;4979359;28;104725;-66
2022/08/08 04:13:46;;;;;;;1.73;1.60;;;;;;;15.61;63.03;99076.50;4973648;28;104146;-67
2022/08/08 04:16:37;;;;;;;1.90;1.70;;;;;;;15.61;62.58;99075.66;4981803;28;102831;-67
2022/08/08 04:19:09;;;;;;;2.45;1.50;;;;;;;15.64;62.75;99086.91;5002154;28;102762;-67
2022/08/08 04:21:53;;;;;;;2.20;1.50;;;;;;;15.64;63.01;99091.38;4980104;28;103763;-67
2022/08/08 04:24:23;;;;;;;1.85;1.27;;;;;;;15.72;62.94;99094.22;4977866;28;104146;-67
2022/08/08 04:27:01;;;;;;;1.10;1.00;;;;;;;16.13;60.08;99096.78;4979804;28;102953;-67
2022/08/08 04:29:35;;;;;;;1.38;1.27;;;;;;;16.31;59.14;99096.94;5007386;28;102668;-67
2022/08/08 04:32:13;;;;;;;2.33;1.83;;;;;;;16.15;60.53;99099.28;4979209;28;103340;-67
2022/08/08 04:35:00;;;;;;;1.60;1.33;;;;;;;15.92;61.86;99097.78;4982658;28;103196;-67
2022/08/08 04:37:33;;;;;;;1.57;1.37;;;;;;;16.11;60.66;99092.56;4981556;28;103074;-67
2022/08/08 04:40:10;;;;;;;1.13;1.03;;;;;;;16.31;59.23;99102.25;4977892;28;103994;-63
2022/08/08 04:42:55;;;;;;;1.23;1.13;;;;;;;16.45;58.92;99106.38;4979835;28;103272;-63
2022/08/08 04:45:36;;;;;;;1.40;1.30;;;;;;;16.50;59.34;99106.81;4975322;28;103669;-64
2022/08/08 04:48:06;;;;;;;1.70;1.40;;;;;;;16.56;59.02;99109.78;4987993;28;103050;-63
2022/08/08 04:50:37;;;;;;;2.27;1.73;;;;;;;16.54;59.47;99114.41;4998963;28;103299;-64
2022/08/08 04:53:15;;;;;;;1.45;1.30;;;;;;;16.60;59.62;99119.19;4975871;28;103337;-63
2022/08/08 04:56:04;;;;;;;2.17;1.77;;;;;;;16.66;60.14;99129.31;4982084;28;103183;-63
2022/08/08 04:58:34;;;;;;;2.13;1.50;;;;;;;16.68;60.02;99118.50;4995283;28;103551;-63
2022/08/08 05:01:07;;;;;;;1.40;1.30;;;;;;;16.79;59.77;99118.38;4979407;28;102932;-63
2022/08/08 05:03:45;;;;;;;1.50;1.20;;;;;;;16.86;59.13;99124.84;4977285;28;103671;-63
2022/08/08 05:06:38;;;;;;;1.40;1.20;;;;;;;16.96;59.02;99125.66;4983180;28;103351;-63
2022/08/08 05:09:08;;;;;;;1.70;1.45;;;;;;;17.04;58.91;99128.47;4995990;28;102774;-63
2022/08/08 05:11:39;;;;;;;2.00;1.40;;;;;;;17.07;59.93;99133.53;4977205;28;104096;-63
2022/08/08 05:14:11;;;;;;;1.30;1.20;;;;;;;17.04;59.55;99125.81;4993441;28;103471;-63
2022/08/08 05:16:45;;;;;;;1.30;1.20;;;;;;;17.21;58.66;99134.94;4982187;28;105175;-63
2022/08/08 05:19:30;;;;;;;2.03;1.33;;;;;;;17.31;59.54;99130.44;5007132;27;102811;-63
2022/08/08 05:22:23;;;;;;;2.30;1.90;;;;;;;17.14;60.22;99128.50;5010468;27;102927;-63
2022/08/08 05:24:51;;;;;;;2.67;1.70;;;;;;;17.37;59.59;99129.88;4995300;28;104035;-63
2022/08/08 05:27:22;;;;;;;2.33;1.70;;;;;;;17.47;58.63;99135.19;4978736;28;103477;-63
2022/08/08 05:29:52;;;;;;;1.30;1.20;;;;;;;17.61;58.22;99138.28;4978372;28;102876;-63
2022/08/08 05:32:34;;;;;;;1.43;1.17;;;;;;;17.82;58.39;99136.22;4981611;28;102758;-63
2022/08/08 05:35:06;;;;;;;1.30;1.20;;;;;;;17.95;57.61;99135.91;4977894;28;104282;-63
2022/08/08 05:37:43;;;;;;;1.65;1.50;;;;;;;18.07;58.05;99145.44;4979704;28;103185;-63
2022/08/08 05:40:23;;;;;;;1.30;1.20;;;;;;;18.21;57.28;99142.28;4973092;28;102809;-63
2022/08/08 05:43:04;;;;;;;1.33;1.23;;;;;;;18.31;57.26;99144.88;4983483;28;102750;-58
2022/08/08 05:45:56;;;;;;;2.90;1.30;;;;;;;18.46;56.82;99135.38;4981902;28;103264;-58
2022/08/08 05:48:34;;;;;;;1.20;1.10;;;;;;;18.59;55.77;99151.94;5003773;27;104269;-63
2022/08/08 05:51:07;;;;;;;1.67;1.40;;;;;;;18.67;55.66;99138.66;4980537;28;102951;-63
2022/08/08 05:53:44;;;;;;;1.77;1.67;;;;;;;18.72;55.61;99147.09;4982772;28;103169;-64
2022/08/08 05:56:38;;;;;;;2.63;2.20;;;;;;;18.61;56.16;99147.28;4974324;28;103798;-62
2022/08/08 05:59:18;;;;;;;1.80;1.40;;;;;;;18.85;55.35;99152.06;4981415;28;103784;-65
2022/08/08 06:03:09;;;;;;;1.50;1.40;;;;;;;19.03;55.31;99150.25;4982150;28;102679;-64
2022/08/08 06:05:10;;;;;;;2.00;1.50;;;;;;;19.18;54.51;99148.69;4974582;28;103132;-63
2022/08/08 06:07:59;;;;;;;2.00;1.50;;;;;;;19.33;54.78;99151.66;4976325;28;103222;-58
2022/08/08 06:10:40;;;;;;;3.42;1.95;;;;;;;19.40;54.86;99152.72;4976282;28;103430;-58
2022/08/08 06:13:11;;;;;;;2.80;2.00;;;;;;;19.48;54.64;99158.19;4991916;28;103202;-58
2022/08/08 06:15:47;;;;;;;3.03;2.00;;;;;;;19.60;54.80;99159.59;4978360;28;103919;-58
2022/08/08 06:18:41;;;;;;;5.15;3.05;;;;;;;19.18;56.99;99154.03;4999484;28;103286;-58
2022/08/08 06:21:11;;;;;;;3.57;2.70;;;;;;;19.09;57.26;99155.81;4981523;28;103307;-58
2022/08/08 06:24:05;;;;;;;2.10;1.90;;;;;;;19.63;56.19;99164.66;4979331;28;102700;-58
2022/08/08 06:26:57;;;;;;;3.33;2.33;;;;;;;19.81;56.89;99167.28;4982458;28;102797;-58
2022/08/08 06:29:33;;;;;;;2.80;2.00;;;;;;;20.04;56.61;99161.22;4977166;28;103480;-58
2022/08/08 06:32:28;;;;;;;6.47;2.67;;;;;;;19.91;57.01;99162.66;4973832;28;103066;-59
2022/08/08 06:35:00;;;;;;;2.67;2.13;;;;;;;20.16;55.87;99176.03;4969855;28;103122;-59
2022/08/08 06:37:59;;;;;;;4.57;2.85;;;;;;;18.95;59.26;99175.06;4981715;28;102746;-59
2022/08/08 06:40:32;;;;;;;4.97;2.80;;;;;;;19.48;58.00;99171.59;4989878;28;103025;-59
2022/08/08 06:43:11;;;;;;;4.20;2.73;;;;;;;19.67;59.23;99179.44;4972931;28;103378;-59
2022/08/08 06:46:07;;;;;;;2.95;2.15;;;;;;;20.05;57.27;99187.03;4984236;28;102754;-59
2022/08/08 06:48:42;;;;;;;2.72;2.13;;;;;;;20.37;56.29;99175.66;4980252;28;102806;-59
2022/08/08 06:51:14;;;;;;;3.67;2.55;;;;;;;20.26;56.33;99178.66;5007003;28;103484;-58
2022/08/08 06:53:45;;;;;;;4.17;2.63;;;;;;;20.63;56.21;99170.25;4979530;28;103279;-58
2022/08/08 06:56:24;;;;;;;4.43;2.30;;;;;;;20.99;55.38;99177.03;4979013;28;102737;-58
2022/08/08 06:58:54;;;;;;;4.25;2.50;;;;;;;21.24;55.64;99178.78;4982365;28;102687;-59
2022/08/08 07:01:24;;;;;;;3.23;2.57;;;;;;;21.43;54.70;99176.75;4979098;28;103862;-59
2022/08/08 07:04:20;;;;;;;5.20;2.83;;;;;;;21.49;53.52;99178.78;4964368;28;103296;-59
2022/08/08 07:07:10;;;;;;;4.97;2.90;;;;;;;20.69;55.56;99186.50;4975798;28;102839;-58
2022/08/08 07:09:51;;;;;;;3.10;2.10;;;;;;;21.17;55.89;99177.75;4943207;28;102999;-58
2022/08/08 07:12:40;;;;;;;5.90;2.63;;;;;;;21.42;54.24;99181.28;4956865;28;103379;-61
2022/08/08 07:15:15;;;;;;;4.10;2.77;;;;;;;21.18;55.10;99184.81;4968299;28;103684;-58
2022/08/08 07:18:05;;;;;;;2.17;1.98;;;;;;;22.04;53.10;99174.34;4971726;28;102782;-59
2022/08/08 07:20:59;;;;;;;4.00;2.20;;;;;;;22.32;52.30;99181.00;4968535;28;103506;-59
2022/08/08 07:23:38;;;;;;;2.43;2.20;;;;;;;22.64;51.56;99173.84;4970152;28;103321;-59
2022/08/08 07:26:32;;;;;;;3.20;2.90;;;;;;;22.06;51.90;99177.75;4973761;28;103365;-60
2022/08/08 07:29:05;;;;;;;4.00;2.50;;;;;;;22.44;52.39;99171.53;4980827;28;102874;-60
2022/08/08 07:31:40;;;;;;;5.30;3.00;;;;;;;22.88;51.08;99168.31;4968078;28;102859;-60
2022/08/08 07:34:10;;;;;;;2.50;2.30;;;;;;;23.17;50.77;99179.25;4974023;28;103088;-60
2022/08/08 07:36:58;;;;;;;3.03;2.42;;;;;;;23.40;50.60;99174.72;4976015;28;103216;-60
2022/08/08 07:39:27;;;;;;;3.92;2.30;;;;;;;23.71;50.01;99182.72;4979520;28;103139;-60
2022/08/08 07:42:10;;;;;;;2.80;2.10;;;;;;;24.11;49.69;99173.41;4966014;28;103056;-59
2022/08/08 07:44:41;;;;;;;4.45;2.47;;;;;;;24.45;48.45;99176.38;4978847;28;105043;-59
2022/08/08 07:47:12;;;;;;;3.53;2.58;;;;;;;24.26;48.17;99176.94;4980382;28;104202;-59
2022/08/08 07:49:42;;;;;;;3.53;2.20;;;;;;;24.75;47.58;99172.63;4980431;28;103225;-59
2022/08/08 07:52:19;;;;;;;4.68;2.72;;;;;;;24.31;48.32;99181.78;4976222;28;102751;-60
2022/08/08 07:54:59;;;;;;;4.07;2.70;;;;;;;24.92;47.34;99172.41;4999124;28;104085;-59
2022/08/08 07:57:40;;;;;;;6.73;2.70;;;;;;;24.76;47.39;99166.16;4982460;28;103443;-68
2022/08/08 08:00:17;;;;;;;2.65;2.22;;;;;;;25.19;47.50;99171.66;4979437;28;102706;-60
2022/08/08 08:02:59;;;;;;;7.10;2.77;;;;;;;25.68;47.23;99185.28;4974385;28;103897;-61
2022/08/08 08:05:30;;;;;;;4.18;2.30;;;;;;;26.08;45.93;99178.28;4983135;28;106125;-61
2022/08/08 08:08:04;;;;;;;9.63;3.27;;;;;;;26.25;45.17;99187.78;4980960;28;103278;-62
2022/08/08 08:10:37;;;;;;;4.03;2.20;;;;;;;26.54;43.80;99192.13;4978356;28;104233;-62
2022/08/08 08:13:22;;;;;;;4.85;2.40;;;;;;;26.54;44.21;99192.97;4976552;28;102735;-62
2022/08/08 08:16:17;;;;;;;3.30;2.20;;;;;;;25.04;45.58;99197.94;4978330;28;103948;-62
2022/08/08 08:18:54;;;;;;;2.53;2.00;;;;;;;26.76;43.86;99197.22;4987460;28;104170;-70
2022/08/08 08:21:30;;;;;;;2.80;2.17;;;;;;;27.13;42.19;99186.97;4978743;28;102785;-71
2022/08/08 08:24:27;;;;;;;4.07;2.03;;;;;;;26.54;43.58;99187.53;4975095;28;102830;-70
2022/08/08 08:27:00;;;;;;;2.50;2.20;;;;;;;27.33;42.22;99195.97;4983014;28;103644;-71
2022/08/08 08:29:32;;;;;;;3.53;1.85;;;;;;;27.53;40.50;99183.31;5007480;28;103364;-71
2022/08/08 08:32:04;;;;;;;2.83;2.10;;;;;;;26.66;42.61;99191.38;4987743;28;103003;-69
2022/08/08 08:34:36;;;;;;;2.47;1.73;;;;;;;27.29;41.63;99181.97;4980219;28;104269;-71
2022/08/08 08:37:11;;;;;;;2.90;1.73;;;;;;;29.02;40.35;99183.25;4994165;28;103267;-71
2022/08/08 08:39:44;;;;;;;2.72;1.80;;;;;;;29.10;39.00;99183.00;4976790;28;103486;-72
2022/08/08 08:42:31;;;;;;;3.20;1.90;;;;;;;28.19;40.25;99184.97;4982021;28;102946;-70
2022/08/08 08:45:10;;;;;;;2.70;1.92;;;;;;;28.53;39.52;99191.16;4983836;28;103566;-70
2022/08/08 08:47:55;;;;;;;2.63;1.80;;;;;;;29.62;39.07;99186.44;4995163;28;103256;-70
2022/08/08 08:50:29;;;;;;;2.78;1.80;;;;;;;30.14;39.41;99193.38;4975349;28;105104;-70
2022/08/08 08:53:04;;;;;;;2.30;1.85;;;;;;;30.85;37.02;99183.56;4977546;28;102994;-70
2022/08/08 08:55:56;;;;;;;2.33;1.90;;;;;;;30.05;39.35;99178.34;4979068;28;102999;-70
2022/08/08 08:58:34;;;;;;;1.90;1.70;;;;;;;29.58;38.58;99185.22;4975664;28;103824;-70
2022/08/08 09:01:06;;;;;;;2.33;1.80;;;;;;;30.13;38.53;99178.91;4981312;28;103478;-71
2022/08/08 09:03:40;;;;;;;2.10;1.73;;;;;;;30.76;39.42;99176.75;4980316;28;103319;-72
2022/08/08 09:06:26;;;;;;;3.33;1.67;;;;;;;31.28;35.88;99171.66;4982707;28;103920;-69
2022/08/08 09:09:08;;;;;;;1.80;1.70;;;;;;;32.08;35.61;99179.25;4979434;28;103648;-70
2022/08/08 09:12:06;;;;;;;2.20;1.70;;;;;;;32.20;33.99;99173.75;4980451;28;103591;-70
2022/08/08 09:14:42;;;;;;;3.60;1.70;;;;;;;31.80;33.86;99181.81;4967318;28;104320;-70
2022/08/08 09:17:16;;;;;;;2.17;1.80;;;;;;;31.45;34.45;99178.97;4984886;28;102878;-69
2022/08/08 09:19:52;;;;;;;2.00;1.60;;;;;;;30.20;36.64;99178.84;4970548;28;104034;-69
2022/08/08 09:22:40;;;;;;;4.67;2.03;;;;;;;31.22;35.12;99162.50;4975181;28;103232;-69
2022/08/08 09:25:10;;;;;;;3.42;1.60;;;;;;;29.47;37.33;99178.63;4970173;28;103142;-72
2022/08/08 09:27:42;;;;;;;3.17;1.83;;;;;;;29.96;35.88;99172.34;4969324;28;104007;-69
2022/08/08 09:30:28;;;;;;;3.67;1.90;;;;;;;28.17;38.01;99175.38;4978352;28;105062;-69
2022/08/08 09:32:58;;;;;;;4.33;1.60;;;;;;;29.36;37.42;99165.72;4982271;28;103226;-70
2022/08/08 09:35:48;;;;;;;2.58;1.70;;;;;;;28.26;36.72;99167.84;4975324;28;103002;-69
2022/08/08 09:38:31;;;;;;;1.90;1.60;;;;;;;29.22;35.52;99164.94;4958756;28;103231;-70
2022/08/08 09:41:05;;;;;;;2.53;1.67;;;;;;;29.06;36.08;99165.44;4973808;28;103206;-70
2022/08/08 09:43:48;;;;;;;2.10;1.50;;;;;;;30.17;36.66;99161.06;4980259;28;103249;-70
2022/08/08 09:46:39;;;;;;;2.40;1.63;;;;;;;30.80;34.54;99158.03;4975954;28;102738;-70
2022/08/08 09:49:17;;;;;;;2.03;1.57;;;;;;;31.81;33.44;99161.59;4980369;28;103015;-70
2022/08/08 09:52:06;;;;;;;2.30;1.90;;;;;;;31.78;34.24;99161.22;4982597;28;103297;-70
2022/08/08 09:54:44;;;;;;;2.25;1.90;;;;;;;31.24;34.85;99165.84;4992761;28;104017;-70
2022/08/08 09:57:18;;;;;;;2.27;1.80;;;;;;;31.52;34.61;99170.72;4996786;28;102877;-70
2022/08/08 09:59:52;;;;;;;2.70;1.70;;;;;;;32.68;33.02;99155.16;4996603;28;104484;-70
2022/08/08 10:02:41;;;;;;;1.88;1.70;;;;;;;33.25;32.58;99160.69;4976617;28;103982;-70
2022/08/08 10:05:16;;;;;;;3.85;1.80;;;;;;;32.03;34.18;99156.41;4993436;28;102981;-70
2022/08/08 10:07:57;;;;;;;1.88;1.65;;;;;;;32.39;33.75;99152.59;4988588;28;102717;-70
2022/08/08 10:10:29;;;;;;;2.03;1.83;;;;;;;32.45;33.41;99152.44;4993442;28;102832;-70
2022/08/08 10:13:00;;;;;;;2.73;1.67;;;;;;;33.37;32.44;99145.03;4995844;28;103360;-69
2022/08/08 10:15:44;;;;;;;3.97;1.83;;;;;;;32.18;31.99;99150.47;4995921;28;103236;-70
2022/08/08 10:18:29;;;;;;;2.25;1.70;;;;;;;32.12;33.28;99146.78;4986474;28;102967;-70
2022/08/08 10:21:03;;;;;;;1.83;1.73;;;;;;;32.90;32.59;99143.56;4997068;28;103896;-73
2022/08/08 10:23:52;;;;;;;3.35;1.85;;;;;;;30.67;33.54;99141.84;4991982;28;103237;-71
2022/08/08 10:26:29;;;;;;;2.80;1.80;;;;;;;30.53;34.83;99145.78;4992695;28;103227;-70
2022/08/08 10:29:23;;;;;;;2.60;1.70;;;;;;;30.33;34.48;99135.09;4988760;28;103050;-70
2022/08/08 10:34:51;;;;;;;2.00;1.57;;;;;;;30.68;34.33;99136.16;4968966;28;103289;-71
2022/08/08 10:37:31;;;;;;;1.77;1.50;;;;;;;31.64;32.73;99136.03;4987524;28;103266;-71
2022/08/08 10:40:14;;;;;;;2.28;1.60;;;;;;;31.54;33.46;99133.06;4988824;28;103165;-71
2022/08/08 10:42:43;;;;;;;3.33;1.80;;;;;;;31.13;34.07;99133.88;4975521;28;103758;-71
2022/08/08 10:45:12;;;;;;;2.28;1.65;;;;;;;32.15;34.38;99132.63;4988291;28;103315;-71
2022/08/08 10:47:44;;;;;;;2.83;2.00;;;;;;;32.42;32.85;99130.25;4987932;28;103330;-71
2022/08/08 10:50:19;;;;;;;2.63;2.00;;;;;;;32.16;32.88;99133.47;4971863;28;104147;-71
2022/08/08 10:52:51;;;;;;;2.00;1.50;;;;;;;32.94;30.70;99122.84;4979667;28;103060;-71
2022/08/08 10:55:19;;;;;;;2.13;1.60;;;;;;;33.56;30.65;99126.44;4988311;28;104510;-70
2022/08/08 10:58:09;;;;;;;1.75;1.30;;;;;;;34.16;29.54;99121.13;4969494;28;103288;-71
2022/08/08 11:00:43;;;;;;;1.92;1.45;;;;;;;32.86;31.85;99132.28;4993584;28;102814;-72
2022/08/08 11:03:29;;;;;;;1.65;1.30;;;;;;;32.68;30.97;99125.06;4991105;28;102784;-71
2022/08/08 11:06:17;;;;;;;1.38;1.10;;;;;;;31.88;30.03;99131.44;4987755;28;103850;-71
2022/08/08 11:08:46;;;;;;;1.30;1.20;;;;;;;31.51;29.63;99117.16;4987645;28;103220;-70
2022/08/08 11:11:20;;;;;;;1.58;1.13;;;;;;;30.55;30.56;99121.84;4988469;28;102884;-71
2022/08/08 11:14:02;;;;;;;1.35;1.00;;;;;;;30.91;30.11;99116.34;4976778;28;104525;-70
2022/08/08 11:16:32;;;;;;;1.25;1.05;;;;;;;31.13;29.18;99114.78;4983203;28;103573;-71
2022/08/08 11:19:03;;;;;;;1.70;1.10;;;;;;;31.86;29.68;99119.94;4982496;28;103257;-70
2022/08/08 11:21:35;;;;;;;1.65;1.08;;;;;;;30.82;29.17;99112.28;4981995;28;102867;-70
2022/08/08 11:24:08;;;;;;;2.28;1.13;;;;;;;30.83;29.12;99111.19;4972585;28;102939;-71
2022/08/08 11:26:41;;;;;;;1.13;1.02;;;;;;;31.39;28.85;99103.47;4982462;28;103237;-71
2022/08/08 11:29:26;;;;;;;1.45;1.02;;;;;;;31.31;29.05;99084.69;4970086;28;103469;-71
2022/08/08 11:32:15;;;;;;;1.33;1.20;;;;;;;31.71;29.05;99101.28;4967391;28;102969;-71
2022/08/08 11:34:50;;;;;;;3.08;1.30;;;;;;;30.31;30.47;99086.28;4963836;28;102921;-71
2022/08/08 11:37:40;;;;;;;2.10;1.27;;;;;;;29.30;31.93;99084.97;4962723;28;103315;-73
2022/08/08 11:40:30;;;;;;;2.95;1.27;;;;;;;29.73;31.34;99091.25;4981155;28;103220;-71
2022/08/08 11:43:00;;;;;;;2.78;1.30;;;;;;;31.58;29.64;99087.03;4981678;28;104251;-72
2022/08/08 11:45:29;;;;;;;2.10;1.30;;;;;;;31.15;29.85;99088.13;4978213;28;104130;-64
2022/08/08 11:48:18;;;;;;;2.28;1.40;;;;;;;30.49;30.39;99090.91;4981279;28;103408;-71
2022/08/08 11:50:49;;;;;;;3.00;1.23;;;;;;;30.39;31.07;99087.88;4960736;28;103786;-72
2022/08/08 11:53:21;;;;;;;1.30;1.20;;;;;;;30.61;30.56;99085.50;4977921;28;102849;-64
2022/08/08 11:55:53;;;;;;;1.50;1.37;;;;;;;29.87;30.09;99086.53;4960919;28;103223;-72
2022/08/08 11:58:32;;;;;;;1.40;1.30;;;;;;;31.98;29.64;99086.06;4950243;28;103345;-72
2022/08/08 12:01:04;;;;;;;1.40;1.30;;;;;;;31.75;28.72;99085.25;4971925;28;103507;-72
2022/08/08 12:03:46;;;;;;;1.97;1.43;;;;;;;30.30;31.34;99091.94;4981705;28;102749;-72
2022/08/08 12:06:15;;;;;;;1.98;1.30;;;;;;;29.97;30.57;99086.88;4978631;28;103083;-72
2022/08/08 12:08:47;;;;;;;2.20;1.30;;;;;;;30.55;30.31;99078.25;4979464;28;103399;-71
2022/08/08 12:11:18;;;;;;;2.00;1.40;;;;;;;30.70;29.83;99073.22;4983265;28;103321;-72
2022/08/08 12:14:03;;;;;;;2.45;1.50;;;;;;;29.74;30.98;99073.03;4980604;28;103033;-72
2022/08/08 12:16:35;;;;;;;2.40;1.38;;;;;;;30.73;29.71;99067.31;4979211;28;104102;-71
2022/08/08 12:19:14;;;;;;;1.50;1.40;;;;;;;31.60;29.54;99076.69;4960020;28;103356;-63
2022/08/08 12:21:42;;;;;;;2.42;1.50;;;;;;;30.60;29.18;99060.13;4978962;28;103453;-64
2022/08/08 12:24:30;;;;;;;1.60;1.38;;;;;;;32.64;27.72;99060.16;4979157;28;102893;-64
2022/08/08 12:26:59;;;;;;;3.40;1.40;;;;;;;31.60;29.21;99071.22;4980093;28;102860;-64
2022/08/08 12:29:37;;;;;;;1.95;1.17;;;;;;;32.88;28.14;99058.13;4982376;28;103548;-64
2022/08/08 12:32:14;;;;;;;2.10;1.20;;;;;;;33.53;27.59;99067.53;4967872;28;103743;-64
2022/08/08 12:35:02;;;;;;;1.40;1.30;;;;;;;32.85;27.78;99058.63;4967142;28;102825;-63
2022/08/08 12:37:46;;;;;;;2.10;1.33;;;;;;;33.15;27.15;99046.34;4986206;28;104649;-64
2022/08/08 12:40:38;;;;;;;1.95;1.30;;;;;;;33.22;28.19;99051.66;4982004;28;103901;-63
2022/08/08 12:43:30;;;;;;;1.45;1.35;;;;;;;31.26;28.35;99053.72;4965935;28;103327;-63
2022/08/08 12:46:14;;;;;;;1.50;1.20;;;;;;;32.33;27.84;99055.97;4985871;28;103560;-71
2022/08/08 12:48:55;;;;;;;1.98;1.30;;;;;;;32.94;26.39;99051.69;4984562;28;103854;-72